Pagina principale
METAR-TAF:

METAR-TAF

Aeroporti :

Berlino, Germania

Aeroporto di Berlino-Tegel

latitudine: 52-34N, longitudine: 013-19E, altezza: 37 m

Osservazione

Il bollettino è stato emesso 13 minuti fa, alle 13:20 UTC
Vento 13 kt da nord-est, variando fra nord e est
Temperature 0°C
Umidità 37%
Pressione 1030 hPa
Visibilità 10 km o più
nessuna nube inferiore a 1500 m e nessun cumulonembo

METAR: EDDT 241320Z 05013KT 010V080 CAVOK M00/M13 Q1030 TEMPO 05015G25KT

Ora: 14:33 (13:33 UTC)

Previsione

Il bollettino è stato emesso 2 ore e 33 minuti fa, alle 11:00 UTC
Previsione valida dal 24 alle 12 UTC al 25 alle 12 UTC
Vento 15 kt da nord-est con raffiche fino a 25 kt
Visibilità 10 km o più
Nubi sparse ad un'altezza di 4500 ft
Evoluzione graduale
dal 24 alle 14 UTC al 24 alle 17 UTC
Vento 9 kt da nord-est

TAF: EDDT 241100Z 2412/2512 05015G25KT 9999 SCT045 BECMG 2414/2417 05009KT

Osservazioni e previsioni meteorologiche di più di 4000 aeroporti (messaggi METAR e TAF).

Le stazioni disponibili sono rappresentate dai dischi gialli e rossi sulla carta.

Puntare il mouse per vedere il nome della stazione.

Clicca sopra per visualizzare le osservazioni e previsioni meteorologiche.

Per cambiare la mappa : fare clic sui pulsanti verdi con una croce nera per ingrandire, il pulsante verde con un trattino per diminuire, o sulla freccia verde per le mappe adiacenti.


METAR-TAF: